SPRKM EPKK-EPKK
Flight info
| Callsign | SPRKM |
|---|---|
| Flight time | 1h 26m |
| Altitude | 2000 |
| Route | DCT |
| Aircraft | C152/L-V/N |
Departure
| Time | 2026-05-04 21:13 |
|---|---|
| Airport | Kraków John Paul II International Airport (EPKK) |
Arrival
| Time | 2026-05-04 22:40 |
|---|---|
| Airport | Kraków John Paul II International Airport (EPKK) |
| Time | Latitude | Longitude | Altitude | Speed | Heading |
|---|---|---|---|---|---|
| 2026-05-04 20:59 | 50.07719 | 19.80276 | 784 ft | 0 kts | 348° |
| 2026-05-04 21:09 | 50.07724 | 19.80275 | 784 ft | 4 kts | 348° |
| 2026-05-04 21:09 | 50.07768 | 19.80278 | 784 ft | 7 kts | 53° |
| 2026-05-04 21:09 | 50.07786 | 19.80339 | 784 ft | 7 kts | 35° |
| 2026-05-04 21:09 | 50.07823 | 19.80343 | 784 ft | 6 kts | 348° |
| 2026-05-04 21:10 | 50.07858 | 19.80331 | 784 ft | 0 kts | 348° |
| 2026-05-04 21:11 | 50.07860 | 19.80330 | 784 ft | 2 kts | 347° |
| 2026-05-04 21:11 | 50.07913 | 19.80313 | 784 ft | 14 kts | 347° |
| 2026-05-04 21:11 | 50.07991 | 19.80278 | 783 ft | 11 kts | 329° |
| 2026-05-04 21:11 | 50.08014 | 19.80209 | 783 ft | 0 kts | 257° |
| 2026-05-04 21:12 | 50.08011 | 19.80190 | 784 ft | 12 kts | 260° |
| 2026-05-04 21:12 | 50.07959 | 19.79807 | 783 ft | 59 kts | 256° |
| 2026-05-04 21:12 | 50.07869 | 19.79180 | 967 ft | 55 kts | 257° |
| 2026-05-04 21:12 | 50.07780 | 19.78604 | 1110 ft | 56 kts | 256° |
| 2026-05-04 21:13 | 50.07684 | 19.77959 | 1204 ft | 70 kts | 257° |
| 2026-05-04 21:13 | 50.07565 | 19.77136 | 1292 ft | 84 kts | 257° |
| 2026-05-04 21:13 | 50.07407 | 19.76240 | 1449 ft | 85 kts | 240° |
| 2026-05-04 21:13 | 50.06899 | 19.75995 | 1624 ft | 89 kts | 173° |
| 2026-05-04 21:14 | 50.06223 | 19.76227 | 1575 ft | 102 kts | 168° |
| 2026-05-04 21:14 | 50.05736 | 19.76836 | 1746 ft | 95 kts | 97° |
| 2026-05-04 21:14 | 50.05949 | 19.77920 | 1720 ft | 109 kts | 72° |
| 2026-05-04 21:14 | 50.06190 | 19.79083 | 1716 ft | 116 kts | 72° |
| 2026-05-04 21:15 | 50.06411 | 19.80292 | 1684 ft | 120 kts | 74° |
| 2026-05-04 21:15 | 50.06653 | 19.81552 | 1582 ft | 120 kts | 75° |
| 2026-05-04 21:15 | 50.07041 | 19.82623 | 1627 ft | 113 kts | 31° |
| 2026-05-04 21:15 | 50.07795 | 19.82669 | 1534 ft | 117 kts | 332° |
| 2026-05-04 21:16 | 50.08165 | 19.81584 | 1219 ft | 126 kts | 270° |
| 2026-05-04 21:16 | 50.08008 | 19.80279 | 905 ft | 116 kts | 256° |
| 2026-05-04 21:16 | 50.07860 | 19.79166 | 789 ft | 90 kts | 258° |
| 2026-05-04 21:16 | 50.07741 | 19.78268 | 813 ft | 87 kts | 258° |
| 2026-05-04 21:17 | 50.07620 | 19.77397 | 1044 ft | 80 kts | 257° |
| 2026-05-04 21:17 | 50.07497 | 19.76514 | 1184 ft | 85 kts | 257° |
| 2026-05-04 21:17 | 50.07623 | 19.75615 | 1261 ft | 94 kts | 320° |
| 2026-05-04 21:17 | 50.08259 | 19.75409 | 1366 ft | 96 kts | 9° |
| 2026-05-04 21:18 | 50.08708 | 19.76131 | 1409 ft | 103 kts | 75° |
| 2026-05-04 21:18 | 50.08805 | 19.77257 | 1475 ft | 101 kts | 86° |
| 2026-05-04 21:18 | 50.08858 | 19.78392 | 1560 ft | 105 kts | 85° |
| 2026-05-04 21:18 | 50.08948 | 19.79577 | 1488 ft | 116 kts | 84° |
| 2026-05-04 21:19 | 50.08970 | 19.80849 | 1408 ft | 117 kts | 106° |
| 2026-05-04 21:19 | 50.08384 | 19.81407 | 1282 ft | 110 kts | 198° |
| 2026-05-04 21:19 | 50.08037 | 19.80382 | 925 ft | 111 kts | 260° |
| 2026-05-04 21:19 | 50.07889 | 19.79302 | 786 ft | 90 kts | 258° |
| 2026-05-04 21:20 | 50.07774 | 19.78490 | 924 ft | 72 kts | 257° |
| 2026-05-04 21:20 | 50.07677 | 19.77769 | 1140 ft | 66 kts | 258° |
| 2026-05-04 21:20 | 50.07565 | 19.76990 | 1210 ft | 83 kts | 257° |
| 2026-05-04 21:20 | 50.07594 | 19.76093 | 1289 ft | 90 kts | 317° |
| 2026-05-04 21:21 | 50.08223 | 19.75998 | 1327 ft | 96 kts | 20° |
| 2026-05-04 21:21 | 50.08588 | 19.76850 | 1298 ft | 100 kts | 79° |
| 2026-05-04 21:21 | 50.08715 | 19.77898 | 1334 ft | 96 kts | 60° |
| 2026-05-04 21:21 | 50.09276 | 19.78311 | 1463 ft | 92 kts | 5° |
| 2026-05-04 21:22 | 50.09925 | 19.78355 | 1547 ft | 97 kts | 356° |
| 2026-05-04 21:22 | 50.10608 | 19.78348 | 1674 ft | 95 kts | 359° |
| 2026-05-04 21:22 | 50.11044 | 19.77793 | 1751 ft | 94 kts | 259° |
| 2026-05-04 21:22 | 50.10474 | 19.77540 | 1698 ft | 110 kts | 139° |
| 2026-05-04 21:23 | 50.10796 | 19.78337 | 1597 ft | 117 kts | 353° |
| 2026-05-04 21:23 | 50.10732 | 19.77825 | 1617 ft | 107 kts | 141° |
| 2026-05-04 21:23 | 50.11063 | 19.78291 | 1664 ft | 100 kts | 302° |
| 2026-05-04 21:23 | 50.10767 | 19.77544 | 1656 ft | 103 kts | 150° |
| 2026-05-04 21:24 | 50.10838 | 19.78521 | 1778 ft | 102 kts | 44° |
| 2026-05-04 21:24 | 50.11357 | 19.78346 | 1787 ft | 94 kts | 271° |
| 2026-05-04 21:24 | 50.11136 | 19.77384 | 1803 ft | 97 kts | 212° |
| 2026-05-04 21:24 | 50.10586 | 19.77988 | 1669 ft | 118 kts | 117° |
| 2026-05-04 21:25 | 50.10268 | 19.79166 | 1561 ft | 120 kts | 114° |
| 2026-05-04 21:25 | 50.09923 | 19.80346 | 1413 ft | 119 kts | 116° |
| 2026-05-04 21:25 | 50.09641 | 19.81523 | 1343 ft | 113 kts | 104° |
| 2026-05-04 21:25 | 50.09446 | 19.82673 | 1293 ft | 111 kts | 109° |
| 2026-05-04 21:26 | 50.08871 | 19.83214 | 1308 ft | 100 kts | 193° |
| 2026-05-04 21:26 | 50.08387 | 19.82447 | 1150 ft | 107 kts | 244° |
| 2026-05-04 21:26 | 50.08152 | 19.81314 | 984 ft | 110 kts | 258° |
| 2026-05-04 21:26 | 50.07998 | 19.80147 | 875 ft | 112 kts | 257° |
| 2026-05-04 21:27 | 50.07837 | 19.78974 | 831 ft | 110 kts | 257° |
| 2026-05-04 21:27 | 50.07677 | 19.77824 | 824 ft | 107 kts | 258° |
| 2026-05-04 21:27 | 50.07520 | 19.76768 | 1008 ft | 92 kts | 255° |
| 2026-05-04 21:27 | 50.07399 | 19.75850 | 1179 ft | 90 kts | 279° |
| 2026-05-04 21:28 | 50.07925 | 19.75483 | 1212 ft | 98 kts | 3° |
| 2026-05-04 21:28 | 50.08557 | 19.75728 | 1324 ft | 96 kts | 49° |
| 2026-05-04 21:28 | 50.08673 | 19.76808 | 1260 ft | 107 kts | 88° |
| 2026-05-04 21:28 | 50.08755 | 19.77980 | 1218 ft | 111 kts | 83° |
| 2026-05-04 21:29 | 50.08839 | 19.79156 | 1249 ft | 107 kts | 84° |
| 2026-05-04 21:29 | 50.08922 | 19.80308 | 1277 ft | 108 kts | 84° |
| 2026-05-04 21:29 | 50.08868 | 19.81070 | 1231 ft | 110 kts | 133° |
| 2026-05-04 21:29 | 50.08174 | 19.80907 | 987 ft | 119 kts | 234° |
| 2026-05-04 21:30 | 50.07906 | 19.79426 | 784 ft | 89 kts | 258° |
| 2026-05-04 21:30 | 50.07831 | 19.78878 | 895 ft | 65 kts | 258° |
| 2026-05-04 21:30 | 50.07737 | 19.78185 | 1062 ft | 72 kts | 259° |
| 2026-05-04 21:30 | 50.07579 | 19.77058 | 1212 ft | 82 kts | 258° |
| 2026-05-04 21:31 | 50.06859 | 19.76324 | 1256 ft | 102 kts | 162° |
| 2026-05-04 21:31 | 50.06164 | 19.76679 | 1242 ft | 106 kts | 160° |
| 2026-05-04 21:31 | 50.05801 | 19.77536 | 1347 ft | 102 kts | 87° |
| 2026-05-04 21:32 | 50.05949 | 19.78644 | 1380 ft | 105 kts | 77° |
| 2026-05-04 21:32 | 50.06140 | 19.79753 | 1402 ft | 110 kts | 73° |
| 2026-05-04 21:32 | 50.06383 | 19.80887 | 1421 ft | 110 kts | 70° |
| 2026-05-04 21:32 | 50.06762 | 19.81910 | 1411 ft | 113 kts | 41° |
| 2026-05-04 21:33 | 50.07485 | 19.82310 | 1367 ft | 111 kts | 355° |
| 2026-05-04 21:33 | 50.08175 | 19.81860 | 1216 ft | 106 kts | 308° |
| 2026-05-04 21:33 | 50.08078 | 19.80779 | 947 ft | 103 kts | 253° |
| 2026-05-04 21:33 | 50.07947 | 19.79744 | 800 ft | 87 kts | 257° |
| 2026-05-04 21:34 | 50.07840 | 19.78938 | 814 ft | 67 kts | 258° |
| 2026-05-04 21:34 | 50.07722 | 19.78159 | 921 ft | 79 kts | 257° |
| 2026-05-04 21:34 | 50.07615 | 19.77338 | 1114 ft | 79 kts | 259° |
| 2026-05-04 21:34 | 50.07494 | 19.76491 | 1300 ft | 81 kts | 253° |
| 2026-05-04 21:35 | 50.07090 | 19.75993 | 1404 ft | 91 kts | 168° |
| 2026-05-04 21:35 | 50.06450 | 19.76291 | 1437 ft | 101 kts | 165° |
| 2026-05-04 21:35 | 50.05849 | 19.76647 | 1621 ft | 92 kts | 158° |
| 2026-05-04 21:35 | 50.05642 | 19.77481 | 1739 ft | 101 kts | 72° |
| 2026-05-04 21:36 | 50.05901 | 19.78591 | 1791 ft | 111 kts | 70° |
| 2026-05-04 21:36 | 50.06186 | 19.79750 | 1778 ft | 115 kts | 69° |
| 2026-05-04 21:36 | 50.06467 | 19.80932 | 1733 ft | 119 kts | 71° |
| 2026-05-04 21:36 | 50.06820 | 19.82139 | 1458 ft | 120 kts | 43° |
| 2026-05-04 21:37 | 50.07569 | 19.82430 | 1303 ft | 112 kts | 345° |
| 2026-05-04 21:37 | 50.08162 | 19.81789 | 1120 ft | 110 kts | 291° |
| 2026-05-04 21:37 | 50.08094 | 19.80689 | 897 ft | 100 kts | 251° |
| 2026-05-04 21:37 | 50.07914 | 19.79589 | 852 ft | 104 kts | 256° |
| 2026-05-04 21:38 | 50.07757 | 19.78497 | 853 ft | 105 kts | 258° |
| 2026-05-04 21:38 | 50.07616 | 19.77395 | 875 ft | 104 kts | 259° |
| 2026-05-04 21:38 | 50.07480 | 19.76353 | 1093 ft | 85 kts | 256° |
| 2026-05-04 21:38 | 50.07142 | 19.75668 | 1237 ft | 90 kts | 192° |
| 2026-05-04 21:39 | 50.06456 | 19.75607 | 1206 ft | 104 kts | 180° |
| 2026-05-04 21:39 | 50.05884 | 19.76144 | 1320 ft | 99 kts | 113° |
| 2026-05-04 21:39 | 50.05803 | 19.77221 | 1338 ft | 106 kts | 91° |
| 2026-05-04 21:39 | 50.05799 | 19.78392 | 1355 ft | 108 kts | 97° |
| 2026-05-04 21:40 | 50.05616 | 19.79479 | 1514 ft | 101 kts | 121° |
| 2026-05-04 21:40 | 50.04993 | 19.79931 | 1565 ft | 105 kts | 183° |
| 2026-05-04 21:40 | 50.04488 | 19.79311 | 1598 ft | 105 kts | 265° |
| 2026-05-04 21:40 | 50.04943 | 19.78606 | 1668 ft | 109 kts | 0° |
| 2026-05-04 21:41 | 50.05501 | 19.79370 | 1617 ft | 114 kts | 77° |
| 2026-05-04 21:41 | 50.05218 | 19.80428 | 1575 ft | 114 kts | 154° |
| 2026-05-04 21:41 | 50.04519 | 19.80240 | 1541 ft | 110 kts | 224° |
| 2026-05-04 21:41 | 50.04392 | 19.79134 | 1561 ft | 110 kts | 285° |
| 2026-05-04 21:42 | 50.04780 | 19.78186 | 1603 ft | 107 kts | 327° |
| 2026-05-04 21:42 | 50.05503 | 19.78247 | 1617 ft | 110 kts | 40° |
| 2026-05-04 21:42 | 50.05709 | 19.79367 | 1648 ft | 113 kts | 92° |
| 2026-05-04 21:42 | 50.05526 | 19.80515 | 1686 ft | 110 kts | 135° |
| 2026-05-04 21:43 | 50.04863 | 19.80619 | 1718 ft | 101 kts | 216° |
| 2026-05-04 21:43 | 50.04615 | 19.79692 | 1790 ft | 101 kts | 268° |
| 2026-05-04 21:43 | 50.04689 | 19.78617 | 1885 ft | 97 kts | 288° |
| 2026-05-04 21:43 | 50.05271 | 19.77907 | 1722 ft | 117 kts | 351° |
| 2026-05-04 21:44 | 50.05679 | 19.78756 | 1754 ft | 114 kts | 95° |
| 2026-05-04 21:44 | 50.05586 | 19.79960 | 1913 ft | 109 kts | 103° |
| 2026-05-04 21:44 | 50.05254 | 19.80941 | 1897 ft | 106 kts | 165° |
| 2026-05-04 21:44 | 50.04609 | 19.80639 | 1856 ft | 102 kts | 233° |
| 2026-05-04 21:45 | 50.04348 | 19.79593 | 1826 ft | 105 kts | 255° |
| 2026-05-04 21:45 | 50.04382 | 19.78535 | 1964 ft | 105 kts | 300° |
| 2026-05-04 21:45 | 50.05078 | 19.78050 | 1818 ft | 127 kts | 6° |
| 2026-05-04 21:45 | 50.05651 | 19.78934 | 1739 ft | 125 kts | 87° |
| 2026-05-04 21:46 | 50.05378 | 19.80089 | 1886 ft | 106 kts | 141° |
| 2026-05-04 21:46 | 50.04704 | 19.80054 | 1710 ft | 108 kts | 238° |
| 2026-05-04 21:46 | 50.04750 | 19.78942 | 1754 ft | 102 kts | 281° |
| 2026-05-04 21:46 | 50.04996 | 19.77913 | 1827 ft | 101 kts | 302° |
| 2026-05-04 21:47 | 50.05637 | 19.77758 | 1843 ft | 102 kts | 40° |
| 2026-05-04 21:47 | 50.05841 | 19.78783 | 1893 ft | 101 kts | 82° |
| 2026-05-04 21:47 | 50.05945 | 19.79805 | 2027 ft | 94 kts | 87° |
| 2026-05-04 21:47 | 50.06041 | 19.80801 | 2101 ft | 92 kts | 86° |
| 2026-05-04 21:48 | 50.05985 | 19.81751 | 2216 ft | 86 kts | 134° |
| 2026-05-04 21:48 | 50.05510 | 19.81637 | 2102 ft | 92 kts | 238° |
| 2026-05-04 21:48 | 50.05343 | 19.80526 | 1914 ft | 107 kts | 259° |
| 2026-05-04 21:48 | 50.05212 | 19.79297 | 1627 ft | 120 kts | 259° |
| 2026-05-04 21:49 | 50.04749 | 19.78469 | 1566 ft | 112 kts | 178° |
| 2026-05-04 21:49 | 50.04501 | 19.79373 | 1496 ft | 117 kts | 58° |
| 2026-05-04 21:49 | 50.05005 | 19.80341 | 1435 ft | 113 kts | 45° |
| 2026-05-04 21:49 | 50.05551 | 19.81217 | 1374 ft | 109 kts | 45° |
| 2026-05-04 21:50 | 50.06082 | 19.82051 | 1268 ft | 108 kts | 45° |
| 2026-05-04 21:50 | 50.06508 | 19.82920 | 1283 ft | 94 kts | 33° |
| 2026-05-04 21:50 | 50.07155 | 19.82891 | 1287 ft | 102 kts | 333° |
| 2026-05-04 21:50 | 50.07837 | 19.82437 | 1179 ft | 107 kts | 337° |
| 2026-05-04 21:51 | 50.08286 | 19.81738 | 1048 ft | 91 kts | 256° |
| 2026-05-04 21:51 | 50.08080 | 19.80785 | 876 ft | 89 kts | 256° |
| 2026-05-04 21:51 | 50.07980 | 19.79935 | 803 ft | 72 kts | 257° |
| 2026-05-04 21:51 | 50.07880 | 19.79255 | 789 ft | 64 kts | 258° |
| 2026-05-04 21:52 | 50.07792 | 19.78594 | 1022 ft | 58 kts | 258° |
| 2026-05-04 21:52 | 50.07692 | 19.77865 | 1097 ft | 79 kts | 258° |
| 2026-05-04 21:52 | 50.07573 | 19.76982 | 1227 ft | 87 kts | 257° |
| 2026-05-04 21:52 | 50.07387 | 19.76041 | 1331 ft | 91 kts | 224° |
| 2026-05-04 21:53 | 50.06774 | 19.76031 | 1402 ft | 98 kts | 170° |
| 2026-05-04 21:53 | 50.06120 | 19.76270 | 1570 ft | 90 kts | 164° |
| 2026-05-04 21:53 | 50.05708 | 19.76971 | 1632 ft | 99 kts | 98° |
| 2026-05-04 21:53 | 50.05789 | 19.78110 | 1647 ft | 110 kts | 81° |
| 2026-05-04 21:54 | 50.05956 | 19.79252 | 1821 ft | 111 kts | 77° |
| 2026-05-04 21:54 | 50.05982 | 19.80478 | 1865 ft | 114 kts | 98° |
| 2026-05-04 21:54 | 50.05969 | 19.81709 | 1866 ft | 118 kts | 95° |
| 2026-05-04 21:54 | 50.05887 | 19.82994 | 1776 ft | 119 kts | 103° |
| 2026-05-04 21:55 | 50.05747 | 19.84221 | 1819 ft | 114 kts | 102° |
| 2026-05-04 21:55 | 50.05643 | 19.85459 | 1773 ft | 116 kts | 100° |
| 2026-05-04 21:55 | 50.05568 | 19.86739 | 1787 ft | 116 kts | 98° |
| 2026-05-04 21:55 | 50.05496 | 19.88015 | 1720 ft | 123 kts | 97° |
| 2026-05-04 21:56 | 50.05417 | 19.89315 | 1718 ft | 121 kts | 99° |
| 2026-05-04 21:56 | 50.05350 | 19.90592 | 1697 ft | 117 kts | 98° |
| 2026-05-04 21:56 | 50.05239 | 19.91889 | 1573 ft | 119 kts | 101° |
| 2026-05-04 21:56 | 50.05095 | 19.93160 | 1529 ft | 115 kts | 101° |
| 2026-05-04 21:57 | 50.04958 | 19.94358 | 1620 ft | 110 kts | 102° |
| 2026-05-04 21:57 | 50.04839 | 19.95562 | 1633 ft | 115 kts | 98° |
| 2026-05-04 21:57 | 50.04753 | 19.96793 | 1646 ft | 119 kts | 99° |
| 2026-05-04 21:57 | 50.04631 | 19.98077 | 1578 ft | 121 kts | 98° |
| 2026-05-04 21:58 | 50.04548 | 19.99409 | 1444 ft | 123 kts | 97° |
| 2026-05-04 21:58 | 50.04476 | 20.00687 | 1479 ft | 114 kts | 96° |
| 2026-05-04 21:58 | 50.04389 | 20.01908 | 1498 ft | 110 kts | 100° |
| 2026-05-04 21:58 | 50.04263 | 20.03129 | 1427 ft | 115 kts | 100° |
| 2026-05-04 21:59 | 50.04149 | 20.04385 | 1292 ft | 120 kts | 98° |
| 2026-05-04 21:59 | 50.04055 | 20.05638 | 1284 ft | 116 kts | 92° |
| 2026-05-04 21:59 | 50.04038 | 20.06850 | 1344 ft | 110 kts | 93° |
| 2026-05-04 21:59 | 50.03992 | 20.08034 | 1383 ft | 110 kts | 95° |
| 2026-05-04 22:00 | 50.03631 | 20.08883 | 1448 ft | 103 kts | 185° |
| 2026-05-04 22:00 | 50.03401 | 20.08046 | 1458 ft | 106 kts | 297° |
| 2026-05-04 22:00 | 50.03910 | 20.07205 | 1489 ft | 105 kts | 317° |
| 2026-05-04 22:00 | 50.04573 | 20.06716 | 1458 ft | 115 kts | 358° |
| 2026-05-04 22:01 | 50.05193 | 20.07372 | 1431 ft | 117 kts | 71° |
| 2026-05-04 22:01 | 50.04929 | 20.08366 | 1550 ft | 102 kts | 163° |
| 2026-05-04 22:01 | 50.04344 | 20.08031 | 1689 ft | 91 kts | 245° |
| 2026-05-04 22:01 | 50.04635 | 20.07217 | 1669 ft | 117 kts | 342° |
| 2026-05-04 22:02 | 50.05118 | 20.07970 | 1775 ft | 111 kts | 104° |
| 2026-05-04 22:02 | 50.04572 | 20.08282 | 1886 ft | 89 kts | 217° |
| 2026-05-04 22:02 | 50.04339 | 20.07455 | 2013 ft | 90 kts | 270° |
| 2026-05-04 22:02 | 50.04488 | 20.06418 | 1977 ft | 101 kts | 278° |
| 2026-05-04 22:03 | 50.04627 | 20.05345 | 1998 ft | 98 kts | 275° |
| 2026-05-04 22:03 | 50.04813 | 20.04268 | 1982 ft | 102 kts | 280° |
| 2026-05-04 22:03 | 50.04985 | 20.03214 | 2026 ft | 102 kts | 278° |
| 2026-05-04 22:03 | 50.05150 | 20.02187 | 2110 ft | 96 kts | 276° |
| 2026-05-04 22:04 | 50.05228 | 20.01126 | 2091 ft | 100 kts | 269° |
| 2026-05-04 22:04 | 50.05234 | 20.00008 | 1892 ft | 115 kts | 265° |
| 2026-05-04 22:04 | 50.05232 | 19.98759 | 1690 ft | 116 kts | 268° |
| 2026-05-04 22:04 | 50.05242 | 19.97497 | 1578 ft | 114 kts | 269° |
| 2026-05-04 22:05 | 50.05264 | 19.96258 | 1416 ft | 118 kts | 271° |
| 2026-05-04 22:05 | 50.05286 | 19.94983 | 1269 ft | 119 kts | 270° |
| 2026-05-04 22:05 | 50.05310 | 19.93775 | 1326 ft | 109 kts | 274° |
| 2026-05-04 22:05 | 50.05418 | 19.92633 | 1362 ft | 106 kts | 279° |
| 2026-05-04 22:06 | 50.05512 | 19.91522 | 1489 ft | 99 kts | 275° |
| 2026-05-04 22:06 | 50.05581 | 19.90455 | 1520 ft | 102 kts | 275° |
| 2026-05-04 22:06 | 50.05641 | 19.89348 | 1475 ft | 104 kts | 262° |
| 2026-05-04 22:06 | 50.05562 | 19.88226 | 1453 ft | 102 kts | 271° |
| 2026-05-04 22:07 | 50.05752 | 19.87152 | 1489 ft | 104 kts | 288° |
| 2026-05-04 22:07 | 50.06026 | 19.86106 | 1489 ft | 106 kts | 292° |
| 2026-05-04 22:07 | 50.06355 | 19.85032 | 1346 ft | 113 kts | 296° |
| 2026-05-04 22:07 | 50.06715 | 19.83981 | 1335 ft | 109 kts | 302° |
| 2026-05-04 22:08 | 50.07162 | 19.83033 | 1254 ft | 113 kts | 313° |
| 2026-05-04 22:08 | 50.07544 | 19.82485 | 1156 ft | 111 kts | 326° |
| 2026-05-04 22:08 | 50.07754 | 19.82269 | 1095 ft | 111 kts | 324° |
| 2026-05-04 22:10 | 50.07438 | 19.76004 | 1333 ft | 95 kts | 258° |
| 2026-05-04 22:10 | 50.07462 | 19.75341 | 1420 ft | 93 kts | 302° |
| 2026-05-04 22:10 | 50.08052 | 19.75192 | 1553 ft | 98 kts | 37° |
| 2026-05-04 22:10 | 50.08338 | 19.76236 | 1474 ft | 113 kts | 75° |
| 2026-05-04 22:11 | 50.08520 | 19.77403 | 1500 ft | 112 kts | 78° |
| 2026-05-04 22:11 | 50.08704 | 19.78661 | 1344 ft | 119 kts | 76° |
| 2026-05-04 22:11 | 50.08886 | 19.79887 | 1279 ft | 115 kts | 77° |
| 2026-05-04 22:11 | 50.09012 | 19.81078 | 1234 ft | 110 kts | 100° |
| 2026-05-04 22:12 | 50.08418 | 19.81521 | 1136 ft | 111 kts | 202° |
| 2026-05-04 22:12 | 50.08047 | 19.80494 | 891 ft | 113 kts | 258° |
| 2026-05-04 22:12 | 50.07865 | 19.79143 | 784 ft | 80 kts | 258° |
| 2026-05-04 22:12 | 50.07792 | 19.78602 | 920 ft | 77 kts | 259° |
| 2026-05-04 22:13 | 50.07668 | 19.77716 | 994 ft | 89 kts | 256° |
| 2026-05-04 22:13 | 50.07530 | 19.76790 | 1166 ft | 88 kts | 257° |
| 2026-05-04 22:13 | 50.07458 | 19.75838 | 1284 ft | 91 kts | 292° |
| 2026-05-04 22:13 | 50.08021 | 19.75484 | 1357 ft | 98 kts | 10° |
| 2026-05-04 22:14 | 50.08657 | 19.75927 | 1418 ft | 100 kts | 28° |
| 2026-05-04 22:14 | 50.09271 | 19.76507 | 1467 ft | 103 kts | 32° |
| 2026-05-04 22:14 | 50.09885 | 19.77106 | 1510 ft | 106 kts | 30° |
| 2026-05-04 22:14 | 50.10465 | 19.77806 | 1521 ft | 110 kts | 52° |
| 2026-05-04 22:15 | 50.11044 | 19.78150 | 1641 ft | 91 kts | 290° |
| 2026-05-04 22:15 | 50.10684 | 19.78062 | 1739 ft | 100 kts | 100° |
| 2026-05-04 22:15 | 50.11134 | 19.78199 | 1826 ft | 96 kts | 292° |
| 2026-05-04 22:15 | 50.10713 | 19.77672 | 1627 ft | 114 kts | 149° |
| 2026-05-04 22:16 | 50.10967 | 19.78386 | 1663 ft | 106 kts | 339° |
| 2026-05-04 22:16 | 50.10738 | 19.77925 | 1647 ft | 102 kts | 163° |
| 2026-05-04 22:16 | 50.10465 | 19.77342 | 1683 ft | 103 kts | 319° |
| 2026-05-04 22:16 | 50.10964 | 19.77880 | 1637 ft | 116 kts | 89° |
| 2026-05-04 22:17 | 50.10544 | 19.78928 | 1550 ft | 115 kts | 139° |
| 2026-05-04 22:17 | 50.09930 | 19.79741 | 1444 ft | 119 kts | 140° |
| 2026-05-04 22:17 | 50.09419 | 19.80696 | 1431 ft | 113 kts | 110° |
| 2026-05-04 22:17 | 50.09345 | 19.81864 | 1457 ft | 106 kts | 88° |
| 2026-05-04 22:18 | 50.09370 | 19.83029 | 1387 ft | 106 kts | 87° |
| 2026-05-04 22:18 | 50.09383 | 19.84093 | 1378 ft | 91 kts | 91° |
| 2026-05-04 22:18 | 50.09364 | 19.85029 | 1412 ft | 78 kts | 108° |
| 2026-05-04 22:18 | 50.08937 | 19.85341 | 1441 ft | 75 kts | 209° |
| 2026-05-04 22:19 | 50.08597 | 19.84642 | 1331 ft | 85 kts | 248° |
| 2026-05-04 22:19 | 50.08496 | 19.83803 | 1222 ft | 75 kts | 264° |
| 2026-05-04 22:19 | 50.08427 | 19.83074 | 1158 ft | 66 kts | 259° |
| 2026-05-04 22:19 | 50.08317 | 19.82370 | 1063 ft | 68 kts | 256° |
| 2026-05-04 22:20 | 50.08199 | 19.81577 | 1032 ft | 81 kts | 259° |
| 2026-05-04 22:20 | 50.08072 | 19.80642 | 932 ft | 94 kts | 258° |
| 2026-05-04 22:20 | 50.07937 | 19.79665 | 806 ft | 85 kts | 257° |
| 2026-05-04 22:20 | 50.07829 | 19.78865 | 786 ft | 74 kts | 257° |
| 2026-05-04 22:21 | 50.07719 | 19.78085 | 978 ft | 76 kts | 257° |
| 2026-05-04 22:21 | 50.07797 | 19.77319 | 1143 ft | 81 kts | 328° |
| 2026-05-04 22:21 | 50.08358 | 19.77296 | 1254 ft | 88 kts | 42° |
| 2026-05-04 22:21 | 50.08522 | 19.78251 | 1287 ft | 98 kts | 83° |
| 2026-05-04 22:22 | 50.08622 | 19.79318 | 1333 ft | 105 kts | 82° |
| 2026-05-04 22:22 | 50.08738 | 19.80458 | 1287 ft | 106 kts | 81° |
| 2026-05-04 22:22 | 50.08824 | 19.81575 | 1246 ft | 103 kts | 87° |
| 2026-05-04 22:22 | 50.08478 | 19.82353 | 1249 ft | 102 kts | 182° |
| 2026-05-04 22:23 | 50.08175 | 19.81403 | 1016 ft | 114 kts | 263° |
| 2026-05-04 22:23 | 50.08009 | 19.80279 | 904 ft | 96 kts | 262° |
| 2026-05-04 22:23 | 50.07889 | 19.79333 | 787 ft | 82 kts | 258° |
| 2026-05-04 22:23 | 50.07775 | 19.78480 | 785 ft | 89 kts | 258° |
| 2026-05-04 22:24 | 50.07662 | 19.77624 | 1055 ft | 79 kts | 258° |
| 2026-05-04 22:24 | 50.07549 | 19.76764 | 1230 ft | 82 kts | 258° |
| 2026-05-04 22:24 | 50.07379 | 19.75886 | 1366 ft | 84 kts | 223° |
| 2026-05-04 22:24 | 50.06759 | 19.75820 | 1368 ft | 100 kts | 165° |
| 2026-05-04 22:25 | 50.06418 | 19.76669 | 1418 ft | 106 kts | 92° |
| 2026-05-04 22:25 | 50.06506 | 19.77807 | 1465 ft | 109 kts | 82° |
| 2026-05-04 22:25 | 50.06629 | 19.78965 | 1506 ft | 109 kts | 81° |
| 2026-05-04 22:25 | 50.06756 | 19.80175 | 1468 ft | 115 kts | 82° |
| 2026-05-04 22:26 | 50.06996 | 19.81369 | 1355 ft | 121 kts | 46° |
| 2026-05-04 22:26 | 50.07774 | 19.81566 | 1225 ft | 117 kts | 346° |
| 2026-05-04 22:26 | 50.08118 | 19.80552 | 977 ft | 118 kts | 253° |
| 2026-05-04 22:26 | 50.07900 | 19.79433 | 786 ft | 94 kts | 258° |
| 2026-05-04 22:27 | 50.07769 | 19.78471 | 785 ft | 97 kts | 258° |
| 2026-05-04 22:27 | 50.07651 | 19.77538 | 1019 ft | 89 kts | 258° |
| 2026-05-04 22:27 | 50.07527 | 19.76578 | 1134 ft | 94 kts | 258° |
| 2026-05-04 22:27 | 50.07160 | 19.75962 | 1311 ft | 91 kts | 179° |
| 2026-05-04 22:28 | 50.06474 | 19.76117 | 1281 ft | 102 kts | 172° |
| 2026-05-04 22:28 | 50.05905 | 19.76613 | 1368 ft | 101 kts | 104° |
| 2026-05-04 22:28 | 50.05996 | 19.77729 | 1363 ft | 107 kts | 79° |
| 2026-05-04 22:28 | 50.06164 | 19.78867 | 1386 ft | 108 kts | 75° |
| 2026-05-04 22:29 | 50.06374 | 19.80009 | 1361 ft | 113 kts | 73° |
| 2026-05-04 22:29 | 50.06602 | 19.81188 | 1310 ft | 113 kts | 73° |
| 2026-05-04 22:29 | 50.06846 | 19.82317 | 1393 ft | 106 kts | 70° |
| 2026-05-04 22:29 | 50.07376 | 19.82888 | 1362 ft | 109 kts | 348° |
| 2026-05-04 22:30 | 50.08052 | 19.82361 | 1238 ft | 115 kts | 309° |
| 2026-05-04 22:30 | 50.08212 | 19.81163 | 1053 ft | 119 kts | 257° |
| 2026-05-04 22:30 | 50.07964 | 19.79908 | 822 ft | 114 kts | 257° |
| 2026-05-04 22:30 | 50.07833 | 19.78907 | 947 ft | 75 kts | 258° |
| 2026-05-04 22:31 | 50.07722 | 19.78090 | 1118 ft | 80 kts | 258° |
| 2026-05-04 22:31 | 50.07599 | 19.77179 | 1220 ft | 91 kts | 258° |
| 2026-05-04 22:31 | 50.07458 | 19.76141 | 1235 ft | 102 kts | 258° |
| 2026-05-04 22:31 | 50.07111 | 19.75310 | 1338 ft | 98 kts | 185° |
| 2026-05-04 22:32 | 50.06436 | 19.75538 | 1371 ft | 101 kts | 166° |
| 2026-05-04 22:32 | 50.06100 | 19.76386 | 1412 ft | 107 kts | 85° |
| 2026-05-04 22:32 | 50.06252 | 19.77544 | 1372 ft | 112 kts | 78° |
| 2026-05-04 22:32 | 50.06409 | 19.78762 | 1267 ft | 116 kts | 77° |
| 2026-05-04 22:33 | 50.06596 | 19.79982 | 1198 ft | 115 kts | 76° |
| 2026-05-04 22:33 | 50.06792 | 19.81176 | 1174 ft | 113 kts | 75° |
| 2026-05-04 22:33 | 50.06990 | 19.82344 | 1175 ft | 110 kts | 73° |
| 2026-05-04 22:33 | 50.07499 | 19.83068 | 1231 ft | 107 kts | 8° |
| 2026-05-04 22:34 | 50.08167 | 19.82647 | 1188 ft | 111 kts | 307° |
| 2026-05-04 22:34 | 50.08224 | 19.81551 | 1035 ft | 102 kts | 249° |
| 2026-05-04 22:34 | 50.08049 | 19.80497 | 883 ft | 98 kts | 257° |
| 2026-05-04 22:34 | 50.07908 | 19.79479 | 833 ft | 95 kts | 257° |
| 2026-05-04 22:35 | 50.07762 | 19.78437 | 862 ft | 100 kts | 259° |
| 2026-05-04 22:35 | 50.07604 | 19.77372 | 939 ft | 99 kts | 256° |
| 2026-05-04 22:35 | 50.07453 | 19.76363 | 1077 ft | 97 kts | 257° |
| 2026-05-04 22:35 | 50.07060 | 19.75622 | 1211 ft | 95 kts | 198° |
| 2026-05-04 22:36 | 50.06380 | 19.75499 | 1260 ft | 99 kts | 171° |
| 2026-05-04 22:36 | 50.06094 | 19.76331 | 1279 ft | 106 kts | 83° |
| 2026-05-04 22:36 | 50.06205 | 19.77468 | 1287 ft | 108 kts | 81° |
| 2026-05-04 22:36 | 50.06346 | 19.78637 | 1252 ft | 110 kts | 78° |
| 2026-05-04 22:37 | 50.06509 | 19.79799 | 1243 ft | 111 kts | 77° |
| 2026-05-04 22:37 | 50.06677 | 19.80970 | 1243 ft | 110 kts | 78° |
| 2026-05-04 22:37 | 50.06827 | 19.82157 | 1210 ft | 111 kts | 81° |
| 2026-05-04 22:37 | 50.06967 | 19.83314 | 1245 ft | 108 kts | 78° |
| 2026-05-04 22:38 | 50.07129 | 19.84451 | 1279 ft | 106 kts | 77° |
| 2026-05-04 22:38 | 50.07402 | 19.85482 | 1388 ft | 100 kts | 44° |
| 2026-05-04 22:38 | 50.08048 | 19.85746 | 1441 ft | 99 kts | 346° |
| 2026-05-04 22:38 | 50.08475 | 19.84970 | 1328 ft | 104 kts | 282° |
| 2026-05-04 22:39 | 50.08520 | 19.83897 | 1283 ft | 102 kts | 263° |
| 2026-05-04 22:39 | 50.08388 | 19.82791 | 1119 ft | 105 kts | 256° |
| 2026-05-04 22:39 | 50.08221 | 19.81676 | 1002 ft | 100 kts | 257° |
| 2026-05-04 22:39 | 50.08079 | 19.80663 | 903 ft | 86 kts | 257° |
| 2026-05-04 22:40 | 50.07980 | 19.79933 | 787 ft | 54 kts | 258° |
| 2026-05-04 22:40 | 50.07913 | 19.79470 | 783 ft | 36 kts | 257° |
| 2026-05-04 22:40 | 50.07866 | 19.79150 | 784 ft | 24 kts | 247° |
| 2026-05-04 22:40 | 50.07781 | 19.79075 | 784 ft | 10 kts | 160° |
| 2026-05-04 22:41 | 50.07712 | 19.79103 | 784 ft | 9 kts | 166° |
| 2026-05-04 22:41 | 50.07652 | 19.79123 | 784 ft | 10 kts | 166° |
| 2026-05-04 22:41 | 50.07623 | 19.79227 | 784 ft | 16 kts | 81° |
| 2026-05-04 22:41 | 50.07654 | 19.79445 | 783 ft | 25 kts | 79° |
| 2026-05-04 22:42 | 50.07689 | 19.79700 | 783 ft | 22 kts | 77° |
| 2026-05-04 22:42 | 50.07700 | 19.79866 | 783 ft | 9 kts | 150° |
| 2026-05-04 22:42 | 50.07631 | 19.79893 | 783 ft | 13 kts | 166° |
| 2026-05-04 22:42 | 50.07617 | 19.80008 | 784 ft | 14 kts | 79° |
| 2026-05-04 22:43 | 50.07643 | 19.80094 | 784 ft | 7 kts | 345° |
| 2026-05-04 22:43 | 50.07692 | 19.80078 | 784 ft | 3 kts | 343° |
| 2026-05-04 22:43 | 50.07694 | 19.80078 | 784 ft | 0 kts | 338° |